sensor_id;sensor_type;location;lat;lon;timestamp;pressure;altitude;pressure_sealevel;temperature;humidity
62976;BME280;49071;0.000;0.000;2023-11-21T06:55:27;100613.22;;;17.96;
62976;BME280;49071;0.000;0.000;2023-11-21T06:58:27;100612.06;;;18.11;
62976;BME280;49071;0.000;0.000;2023-11-21T07:01:28;100619.06;;;18.32;
62976;BME280;49071;0.000;0.000;2023-11-21T07:04:28;100618.91;;;18.55;
62976;BME280;49071;0.000;0.000;2023-11-21T07:07:28;100622.28;;;18.77;
62976;BME280;49071;0.000;0.000;2023-11-21T07:10:28;100611.84;;;18.97;
62976;BME280;49071;0.000;0.000;2023-11-21T07:13:29;100605.91;;;19.15;
62976;BME280;49071;0.000;0.000;2023-11-21T07:16:29;100615.97;;;19.31;
62976;BME280;49071;0.000;0.000;2023-11-21T07:19:30;100626.41;;;19.41;
62976;BME280;49071;0.000;0.000;2023-11-21T07:22:30;100634.34;;;19.51;
62976;BME280;49071;0.000;0.000;2023-11-21T07:25:31;100629.41;;;19.57;
62976;BME280;49071;0.000;0.000;2023-11-21T07:28:31;100635.78;;;19.64;
62976;BME280;49071;0.000;0.000;2023-11-21T07:31:32;100640.19;;;19.74;
62976;BME280;49071;0.000;0.000;2023-11-21T07:34:34;100630.16;;;19.89;
62976;BME280;49071;0.000;0.000;2023-11-21T07:37:34;100627.97;;;19.93;
62976;BME280;49071;0.000;0.000;2023-11-21T07:40:34;100635.75;;;19.95;
62976;BME280;49071;0.000;0.000;2023-11-21T07:43:35;100643.88;;;19.92;
62976;BME280;49071;0.000;0.000;2023-11-21T07:46:35;100648.53;;;19.89;
62976;BME280;49071;0.000;0.000;2023-11-21T07:49:35;100647.53;;;19.80;
62976;BME280;49071;0.000;0.000;2023-11-21T07:52:35;100643.88;;;19.72;
62976;BME280;49071;0.000;0.000;2023-11-21T07:55:36;100640.22;;;19.63;
62976;BME280;49071;0.000;0.000;2023-11-21T07:58:36;100643.50;;;19.56;
62976;BME280;49071;0.000;0.000;2023-11-21T08:01:37;100640.81;;;19.47;
62976;BME280;49071;0.000;0.000;2023-11-21T08:04:37;100652.91;;;19.38;
62976;BME280;49071;0.000;0.000;2023-11-21T08:07:37;100668.44;;;19.31;
62976;BME280;49071;0.000;0.000;2023-11-21T08:10:38;100655.13;;;19.23;
62976;BME280;49071;0.000;0.000;2023-11-21T08:13:38;100679.34;;;19.15;
62976;BME280;49071;0.000;0.000;2023-11-21T08:16:39;100667.84;;;19.07;
62976;BME280;49071;0.000;0.000;2023-11-21T08:19:39;100671.78;;;19.02;
62976;BME280;49071;0.000;0.000;2023-11-21T08:22:39;100673.13;;;18.96;
62976;BME280;49071;0.000;0.000;2023-11-21T08:25:41;100675.28;;;18.91;
62976;BME280;49071;0.000;0.000;2023-11-21T08:28:42;100676.69;;;18.84;
62976;BME280;49071;0.000;0.000;2023-11-21T08:31:42;100700.66;;;18.80;
62976;BME280;49071;0.000;0.000;2023-11-21T08:34:42;100700.19;;;18.75;
62976;BME280;49071;0.000;0.000;2023-11-21T08:37:44;100697.13;;;18.70;
62976;BME280;49071;0.000;0.000;2023-11-21T08:40:44;100697.47;;;18.66;
62976;BME280;49071;0.000;0.000;2023-11-21T08:43:45;100704.75;;;18.62;
62976;BME280;49071;0.000;0.000;2023-11-21T08:46:45;100712.00;;;18.59;
62976;BME280;49071;0.000;0.000;2023-11-21T08:49:46;100713.22;;;18.55;
62976;BME280;49071;0.000;0.000;2023-11-21T08:52:47;100717.84;;;18.51;
62976;BME280;49071;0.000;0.000;2023-11-21T08:55:48;100717.25;;;18.48;
62976;BME280;49071;0.000;0.000;2023-11-21T08:58:50;100730.72;;;18.44;
62976;BME280;49071;0.000;0.000;2023-11-21T09:01:50;100737.84;;;18.42;
62976;BME280;49071;0.000;0.000;2023-11-21T09:04:50;100739.88;;;18.38;
62976;BME280;49071;0.000;0.000;2023-11-21T09:07:52;100741.91;;;18.35;
62976;BME280;49071;0.000;0.000;2023-11-21T09:10:52;100741.31;;;18.31;
62976;BME280;49071;0.000;0.000;2023-11-21T09:13:52;100744.19;;;18.28;
62976;BME280;49071;0.000;0.000;2023-11-21T09:16:54;100743.59;;;18.25;
62976;BME280;49071;0.000;0.000;2023-11-21T09:19:54;100749.06;;;18.22;
62976;BME280;49071;0.000;0.000;2023-11-21T09:22:54;100747.50;;;18.19;
62976;BME280;49071;0.000;0.000;2023-11-21T09:25:56;100755.72;;;18.15;
62976;BME280;49071;0.000;0.000;2023-11-21T09:28:57;100758.44;;;18.14;
62976;BME280;49071;0.000;0.000;2023-11-21T09:31:57;100757.72;;;18.12;
62976;BME280;49071;0.000;0.000;2023-11-21T09:34:59;100770.56;;;18.15;
62976;BME280;49071;0.000;0.000;2023-11-21T09:38:02;100766.56;;;18.21;
62976;BME280;49071;0.000;0.000;2023-11-21T09:41:05;100770.13;;;18.42;
62976;BME280;49071;0.000;0.000;2023-11-21T09:44:13;100768.94;;;18.68;
62976;BME280;49071;0.000;0.000;2023-11-21T09:47:14;100778.81;;;18.97;
62976;BME280;49071;0.000;0.000;2023-11-21T09:50:16;100779.38;;;19.22;
62976;BME280;49071;0.000;0.000;2023-11-21T09:53:18;100791.47;;;19.44;
62976;BME280;49071;0.000;0.000;2023-11-21T09:56:21;100792.78;;;19.70;
62976;BME280;49071;0.000;0.000;2023-11-21T09:59:23;100795.72;;;19.87;
62976;BME280;49071;0.000;0.000;2023-11-21T10:02:27;100800.38;;;20.04;
62976;BME280;49071;0.000;0.000;2023-11-21T10:05:32;100793.53;;;20.12;
62976;BME280;49071;0.000;0.000;2023-11-21T10:08:34;100801.41;;;20.12;
62976;BME280;49071;0.000;0.000;2023-11-21T10:11:36;100802.63;;;20.08;
62976;BME280;49071;0.000;0.000;2023-11-21T10:14:37;100803.16;;;20.02;
62976;BME280;49071;0.000;0.000;2023-11-21T10:17:40;100808.91;;;19.96;
62976;BME280;49071;0.000;0.000;2023-11-21T10:20:43;100820.13;;;19.98;
62976;BME280;49071;0.000;0.000;2023-11-21T10:23:46;100821.53;;;20.02;
62976;BME280;49071;0.000;0.000;2023-11-21T10:26:46;100827.81;;;20.11;
62976;BME280;49071;0.000;0.000;2023-11-21T10:29:51;100823.31;;;20.22;
62976;BME280;49071;0.000;0.000;2023-11-21T10:32:51;100819.41;;;20.37;
62976;BME280;49071;0.000;0.000;2023-11-21T10:35:58;100820.38;;;20.36;
62976;BME280;49071;0.000;0.000;2023-11-21T10:39:01;100834.03;;;20.30;
62976;BME280;49071;0.000;0.000;2023-11-21T10:42:01;100836.34;;;20.23;
62976;BME280;49071;0.000;0.000;2023-11-21T10:45:03;100841.59;;;20.23;
62976;BME280;49071;0.000;0.000;2023-11-21T10:48:07;100842.03;;;20.28;
62976;BME280;49071;0.000;0.000;2023-11-21T10:51:08;100838.25;;;20.42;
62976;BME280;49071;0.000;0.000;2023-11-21T10:54:09;100835.09;;;20.48;
62976;BME280;49071;0.000;0.000;2023-11-21T10:57:10;100856.38;;;20.45;
62976;BME280;49071;0.000;0.000;2023-11-21T11:00:10;100849.03;;;20.39;
62976;BME280;49071;0.000;0.000;2023-11-21T11:03:13;100845.00;;;20.35;
62976;BME280;49071;0.000;0.000;2023-11-21T11:06:14;100859.72;;;20.26;
62976;BME280;49071;0.000;0.000;2023-11-21T11:09:15;100865.84;;;20.16;
62976;BME280;49071;0.000;0.000;2023-11-21T11:12:16;100873.06;;;20.14;
62976;BME280;49071;0.000;0.000;2023-11-21T11:15:19;100864.66;;;20.20;
62976;BME280;49071;0.000;0.000;2023-11-21T11:18:19;100866.78;;;20.26;
62976;BME280;49071;0.000;0.000;2023-11-21T11:34:26;100876.22;;;20.69;
62976;BME280;49071;0.000;0.000;2023-11-21T11:37:29;100893.06;;;20.66;
62976;BME280;49071;0.000;0.000;2023-11-21T11:40:39;100891.06;;;20.59;
62976;BME280;49071;0.000;0.000;2023-11-21T11:43:40;100903.19;;;20.50;
62976;BME280;49071;0.000;0.000;2023-11-21T11:46:46;100910.88;;;20.43;
62976;BME280;49071;0.000;0.000;2023-11-21T11:53:13;100910.88;;;20.22;
62976;BME280;49071;0.000;0.000;2023-11-21T11:56:29;100914.25;;;20.14;
62976;BME280;49071;0.000;0.000;2023-11-21T11:59:36;100913.47;;;20.02;
62976;BME280;49071;0.000;0.000;2023-11-21T12:02:55;100921.34;;;20.02;
62976;BME280;49071;0.000;0.000;2023-11-21T12:05:56;100927.16;;;20.06;
62976;BME280;49071;0.000;0.000;2023-11-21T12:09:00;100931.66;;;20.15;
62976;BME280;49071;0.000;0.000;2023-11-21T12:12:01;100939.53;;;20.25;
62976;BME280;49071;0.000;0.000;2023-11-21T12:15:02;100942.91;;;20.37;
62976;BME280;49071;0.000;0.000;2023-11-21T12:18:02;100945.25;;;20.50;
62976;BME280;49071;0.000;0.000;2023-11-21T12:21:03;100944.50;;;20.59;
62976;BME280;49071;0.000;0.000;2023-11-21T12:24:04;100958.81;;;20.66;
62976;BME280;49071;0.000;0.000;2023-11-21T12:27:04;100946.22;;;20.70;
62976;BME280;49071;0.000;0.000;2023-11-21T12:30:04;100949.84;;;20.69;
62976;BME280;49071;0.000;0.000;2023-11-21T12:33:05;100966.38;;;20.60;
62976;BME280;49071;0.000;0.000;2023-11-21T12:36:08;100963.50;;;20.52;
62976;BME280;49071;0.000;0.000;2023-11-21T12:39:10;100971.31;;;20.43;
62976;BME280;49071;0.000;0.000;2023-11-21T12:42:10;100969.56;;;20.32;
62976;BME280;49071;0.000;0.000;2023-11-21T12:48:17;100975.25;;;20.17;
62976;BME280;49071;0.000;0.000;2023-11-21T12:51:24;100982.16;;;20.18;
62976;BME280;49071;0.000;0.000;2023-11-21T12:54:25;100987.91;;;20.23;
62976;BME280;49071;0.000;0.000;2023-11-21T12:57:25;100989.06;;;20.30;
62976;BME280;49071;0.000;0.000;2023-11-21T13:00:28;100987.59;;;20.37;
62976;BME280;49071;0.000;0.000;2023-11-21T13:03:31;100998.06;;;20.48;
62976;BME280;49071;0.000;0.000;2023-11-21T13:06:32;100997.34;;;20.56;
62976;BME280;49071;0.000;0.000;2023-11-21T13:09:38;101009.59;;;20.67;
62976;BME280;49071;0.000;0.000;2023-11-21T13:12:45;101004.28;;;20.78;
62976;BME280;49071;0.000;0.000;2023-11-21T13:15:48;101014.28;;;20.83;
62976;BME280;49071;0.000;0.000;2023-11-21T13:18:49;101020.50;;;20.82;
62976;BME280;49071;0.000;0.000;2023-11-21T13:21:51;101029.59;;;20.78;
62976;BME280;49071;0.000;0.000;2023-11-21T13:24:52;101031.19;;;20.70;
62976;BME280;49071;0.000;0.000;2023-11-21T13:27:53;101030.16;;;20.62;
62976;BME280;49071;0.000;0.000;2023-11-21T13:30:53;101027.34;;;20.54;
62976;BME280;49071;0.000;0.000;2023-11-21T13:33:54;101024.72;;;20.43;
62976;BME280;49071;0.000;0.000;2023-11-21T13:36:55;101035.03;;;20.35;
62976;BME280;49071;0.000;0.000;2023-11-21T13:39:58;101037.56;;;20.26;
62976;BME280;49071;0.000;0.000;2023-11-21T13:42:58;101042.59;;;20.18;
62976;BME280;49071;0.000;0.000;2023-11-21T13:45:59;101050.28;;;20.10;
62976;BME280;49071;0.000;0.000;2023-11-21T13:49:03;101052.53;;;20.04;
62976;BME280;49071;0.000;0.000;2023-11-21T13:52:06;101051.25;;;19.98;
62976;BME280;49071;0.000;0.000;2023-11-21T13:55:07;101054.31;;;20.03;
62976;BME280;49071;0.000;0.000;2023-11-21T13:58:14;101058.03;;;20.12;
62976;BME280;49071;0.000;0.000;2023-11-21T14:01:19;101061.72;;;20.20;
62976;BME280;49071;0.000;0.000;2023-11-21T14:04:32;101077.06;;;20.35;
62976;BME280;49071;0.000;0.000;2023-11-21T14:07:46;101072.50;;;20.48;
62976;BME280;49071;0.000;0.000;2023-11-21T14:10:48;101080.63;;;20.56;
62976;BME280;49071;0.000;0.000;2023-11-21T14:13:55;101080.22;;;20.71;
62976;BME280;49071;0.000;0.000;2023-11-21T14:16:55;101083.59;;;20.82;
62976;BME280;49071;0.000;0.000;2023-11-21T14:19:57;101086.78;;;20.97;
62976;BME280;49071;0.000;0.000;2023-11-21T14:22:57;101093.31;;;21.02;
62976;BME280;49071;0.000;0.000;2023-11-21T14:25:57;101096.06;;;21.01;
62976;BME280;49071;0.000;0.000;2023-11-21T14:28:58;101105.56;;;20.92;
62976;BME280;49071;0.000;0.000;2023-11-21T14:31:59;101101.06;;;20.83;
62976;BME280;49071;0.000;0.000;2023-11-21T14:34:59;101102.78;;;20.74;
62976;BME280;49071;0.000;0.000;2023-11-21T14:37:59;101114.19;;;20.63;
62976;BME280;49071;0.000;0.000;2023-11-21T14:41:01;101122.81;;;20.54;
62976;BME280;49071;0.000;0.000;2023-11-21T14:44:01;101138.31;;;20.47;
62976;BME280;49071;0.000;0.000;2023-11-21T14:47:03;101140.97;;;20.36;
62976;BME280;49071;0.000;0.000;2023-11-21T14:50:07;101146.97;;;20.27;
62976;BME280;49071;0.000;0.000;2023-11-21T14:53:27;101156.28;;;20.20;
62976;BME280;49071;0.000;0.000;2023-11-21T14:56:51;101153.41;;;20.12;
62976;BME280;49071;0.000;0.000;2023-11-21T14:59:52;101160.22;;;20.04;
62976;BME280;49071;0.000;0.000;2023-11-21T15:02:54;101160.84;;;19.96;
62976;BME280;49071;0.000;0.000;2023-11-21T15:05:54;101167.06;;;19.95;
62976;BME280;49071;0.000;0.000;2023-11-21T15:08:56;101175.38;;;20.00;
62976;BME280;49071;0.000;0.000;2023-11-21T15:12:19;101181.63;;;20.10;
62976;BME280;49071;0.000;0.000;2023-11-21T15:15:22;101182.44;;;20.21;
62976;BME280;49071;0.000;0.000;2023-11-21T15:18:22;101189.34;;;20.33;
62976;BME280;49071;0.000;0.000;2023-11-21T15:21:23;101197.00;;;20.47;
62976;BME280;49071;0.000;0.000;2023-11-21T15:24:24;101187.06;;;20.61;
62976;BME280;49071;0.000;0.000;2023-11-21T15:27:27;101197.69;;;20.71;
62976;BME280;49071;0.000;0.000;2023-11-21T15:30:28;101200.41;;;20.80;
62976;BME280;49071;0.000;0.000;2023-11-21T15:33:31;101210.91;;;20.91;
62976;BME280;49071;0.000;0.000;2023-11-21T15:36:31;101218.31;;;20.97;
62976;BME280;49071;0.000;0.000;2023-11-21T15:39:32;101228.09;;;20.95;
62976;BME280;49071;0.000;0.000;2023-11-21T15:42:32;101231.22;;;20.89;
62976;BME280;49071;0.000;0.000;2023-11-21T15:45:32;101237.13;;;20.81;
62976;BME280;49071;0.000;0.000;2023-11-21T15:48:35;101235.22;;;20.73;
62976;BME280;49071;0.000;0.000;2023-11-21T15:51:44;101250.91;;;20.63;
62976;BME280;49071;0.000;0.000;2023-11-21T15:54:52;101252.59;;;20.53;
62976;BME280;49071;0.000;0.000;2023-11-21T15:57:54;101259.47;;;20.44;
62976;BME280;49071;0.000;0.000;2023-11-21T16:00:54;101269.88;;;20.23;
62976;BME280;49071;0.000;0.000;2023-11-21T16:03:56;101270.94;;;20.10;
62976;BME280;49071;0.000;0.000;2023-11-21T16:06:56;101266.75;;;20.08;
62976;BME280;49071;0.000;0.000;2023-11-21T16:09:59;101266.53;;;20.11;
62976;BME280;49071;0.000;0.000;2023-11-21T16:12:59;101272.72;;;20.10;
62976;BME280;49071;0.000;0.000;2023-11-21T16:16:00;101279.06;;;20.07;
62976;BME280;49071;0.000;0.000;2023-11-21T16:19:00;101278.66;;;20.01;
62976;BME280;49071;0.000;0.000;2023-11-21T16:22:00;101288.56;;;19.97;
62976;BME280;49071;0.000;0.000;2023-11-21T16:25:01;101293.59;;;20.00;
62976;BME280;49071;0.000;0.000;2023-11-21T16:28:02;101293.84;;;20.08;
62976;BME280;49071;0.000;0.000;2023-11-21T16:31:04;101296.16;;;20.23;
62976;BME280;49071;0.000;0.000;2023-11-21T16:34:11;101305.81;;;20.34;
62976;BME280;49071;0.000;0.000;2023-11-21T16:37:11;101306.78;;;20.44;
62976;BME280;49071;0.000;0.000;2023-11-21T16:40:11;101301.47;;;20.56;
62976;BME280;49071;0.000;0.000;2023-11-21T16:43:11;101317.22;;;20.67;
62976;BME280;49071;0.000;0.000;2023-11-21T16:46:12;101322.34;;;20.79;
62976;BME280;49071;0.000;0.000;2023-11-21T16:49:12;101329.28;;;20.91;
62976;BME280;49071;0.000;0.000;2023-11-21T16:52:12;101329.13;;;21.03;
62976;BME280;49071;0.000;0.000;2023-11-21T16:55:13;101335.00;;;21.07;
62976;BME280;49071;0.000;0.000;2023-11-21T16:58:15;101336.66;;;21.07;
62976;BME280;49071;0.000;0.000;2023-11-21T17:01:16;101341.91;;;21.07;
62976;BME280;49071;0.000;0.000;2023-11-21T17:04:17;101342.44;;;21.02;
62976;BME280;49071;0.000;0.000;2023-11-21T17:07:22;101353.06;;;20.89;
62976;BME280;49071;0.000;0.000;2023-11-21T17:10:22;101351.28;;;20.79;
62976;BME280;49071;0.000;0.000;2023-11-21T17:13:22;101352.81;;;20.71;
62976;BME280;49071;0.000;0.000;2023-11-21T17:16:23;101358.09;;;20.71;
62976;BME280;49071;0.000;0.000;2023-11-21T17:19:23;101373.75;;;20.61;
62976;BME280;49071;0.000;0.000;2023-11-21T17:22:23;101374.41;;;20.52;
62976;BME280;49071;0.000;0.000;2023-11-21T17:25:23;101373.72;;;20.50;
62976;BME280;49071;0.000;0.000;2023-11-21T17:28:24;101380.13;;;20.47;
62976;BME280;49071;0.000;0.000;2023-11-21T17:31:24;101375.63;;;20.38;
62976;BME280;49071;0.000;0.000;2023-11-21T17:34:24;101387.06;;;20.26;
62976;BME280;49071;0.000;0.000;2023-11-21T17:37:24;101393.00;;;20.17;
62976;BME280;49071;0.000;0.000;2023-11-21T17:40:25;101392.50;;;20.12;
62976;BME280;49071;0.000;0.000;2023-11-21T17:43:26;101403.13;;;20.11;
62976;BME280;49071;0.000;0.000;2023-11-21T17:46:26;101406.91;;;20.07;
62976;BME280;49071;0.000;0.000;2023-11-21T17:49:26;101408.94;;;20.03;
62976;BME280;49071;0.000;0.000;2023-11-21T17:52:27;101414.56;;;19.99;
62976;BME280;49071;0.000;0.000;2023-11-21T17:55:27;101425.28;;;19.96;
62976;BME280;49071;0.000;0.000;2023-11-21T17:58:27;101426.34;;;19.93;
62976;BME280;49071;0.000;0.000;2023-11-21T18:01:28;101434.88;;;19.85;
62976;BME280;49071;0.000;0.000;2023-11-21T18:04:33;101437.53;;;19.85;
62976;BME280;49071;0.000;0.000;2023-11-21T18:07:35;101444.84;;;19.92;
62976;BME280;49071;0.000;0.000;2023-11-21T18:10:35;101439.03;;;19.99;
62976;BME280;49071;0.000;0.000;2023-11-21T18:13:35;101443.47;;;20.10;
62976;BME280;49071;0.000;0.000;2023-11-21T18:16:35;101446.47;;;20.16;
62976;BME280;49071;0.000;0.000;2023-11-21T18:19:37;101447.50;;;20.26;
62976;BME280;49071;0.000;0.000;2023-11-21T18:22:37;101450.50;;;20.32;
62976;BME280;49071;0.000;0.000;2023-11-21T18:25:38;101458.53;;;20.42;
62976;BME280;49071;0.000;0.000;2023-11-21T18:28:41;101462.13;;;20.51;
62976;BME280;49071;0.000;0.000;2023-11-21T18:31:41;101472.22;;;20.57;
62976;BME280;49071;0.000;0.000;2023-11-21T18:34:41;101480.16;;;20.68;
62976;BME280;49071;0.000;0.000;2023-11-21T18:37:43;101488.31;;;20.87;
62976;BME280;49071;0.000;0.000;2023-11-21T18:40:46;101492.72;;;20.97;
62976;BME280;49071;0.000;0.000;2023-11-21T18:43:46;101494.16;;;21.01;
62976;BME280;49071;0.000;0.000;2023-11-21T18:46:46;101496.69;;;21.03;
62976;BME280;49071;0.000;0.000;2023-11-21T18:49:47;101495.03;;;21.02;
62976;BME280;49071;0.000;0.000;2023-11-21T18:52:47;101499.78;;;20.97;
62976;BME280;49071;0.000;0.000;2023-11-21T18:55:49;101508.16;;;20.91;
62976;BME280;49071;0.000;0.000;2023-11-21T18:58:50;101513.16;;;20.83;
62976;BME280;49071;0.000;0.000;2023-11-21T19:01:50;101508.72;;;20.73;
62976;BME280;49071;0.000;0.000;2023-11-21T19:04:50;101510.16;;;20.66;
62976;BME280;49071;0.000;0.000;2023-11-21T19:07:51;101518.25;;;20.63;
62976;BME280;49071;0.000;0.000;2023-11-21T19:10:52;101523.16;;;20.56;
62976;BME280;49071;0.000;0.000;2023-11-21T19:13:53;101539.16;;;20.53;
62976;BME280;49071;0.000;0.000;2023-11-21T19:16:53;101537.88;;;20.47;
62976;BME280;49071;0.000;0.000;2023-11-21T19:19:53;101541.81;;;20.41;
62976;BME280;49071;0.000;0.000;2023-11-21T19:22:53;101559.84;;;20.35;
62976;BME280;49071;0.000;0.000;2023-11-21T19:25:55;101565.31;;;20.32;
62976;BME280;49071;0.000;0.000;2023-11-21T19:28:55;101567.03;;;20.20;
62976;BME280;49071;0.000;0.000;2023-11-21T19:31:55;101572.22;;;20.10;
62976;BME280;49071;0.000;0.000;2023-11-21T19:34:56;101574.66;;;20.00;
62976;BME280;49071;0.000;0.000;2023-11-21T19:37:56;101580.34;;;19.94;
62976;BME280;49071;0.000;0.000;2023-11-21T19:40:57;101584.16;;;19.91;
62976;BME280;49071;0.000;0.000;2023-11-21T19:43:57;101589.41;;;19.91;
62976;BME280;49071;0.000;0.000;2023-11-21T19:46:58;101591.94;;;19.92;
62976;BME280;49071;0.000;0.000;2023-11-21T19:49:59;101599.28;;;19.87;
62976;BME280;49071;0.000;0.000;2023-11-21T19:52:59;101604.97;;;19.81;
62976;BME280;49071;0.000;0.000;2023-11-21T19:55:59;101612.03;;;19.81;
62976;BME280;49071;0.000;0.000;2023-11-21T19:59:01;101612.53;;;19.86;
62976;BME280;49071;0.000;0.000;2023-11-21T20:02:01;101625.00;;;19.94;
62976;BME280;49071;0.000;0.000;2023-11-21T20:05:02;101621.41;;;20.08;
62976;BME280;49071;0.000;0.000;2023-11-21T20:08:02;101627.78;;;20.16;
62976;BME280;49071;0.000;0.000;2023-11-21T20:11:04;101624.63;;;20.23;
62976;BME280;49071;0.000;0.000;2023-11-21T20:14:04;101632.69;;;20.33;
62976;BME280;49071;0.000;0.000;2023-11-21T20:17:04;101638.72;;;20.46;
62976;BME280;49071;0.000;0.000;2023-11-21T20:20:05;101638.59;;;20.59;
62976;BME280;49071;0.000;0.000;2023-11-21T20:23:05;101643.69;;;20.73;
62976;BME280;49071;0.000;0.000;2023-11-21T20:26:05;101647.94;;;20.86;
62976;BME280;49071;0.000;0.000;2023-11-21T20:29:06;101644.97;;;20.91;
62976;BME280;49071;0.000;0.000;2023-11-21T20:32:06;101649.16;;;20.93;
62976;BME280;49071;0.000;0.000;2023-11-21T20:35:06;101652.72;;;20.92;
62976;BME280;49071;0.000;0.000;2023-11-21T20:38:07;101652.13;;;20.89;
62976;BME280;49071;0.000;0.000;2023-11-21T20:41:12;101649.00;;;20.84;
62976;BME280;49071;0.000;0.000;2023-11-21T20:44:14;101655.53;;;20.78;
62976;BME280;49071;0.000;0.000;2023-11-21T20:47:14;101651.78;;;20.70;
62976;BME280;49071;0.000;0.000;2023-11-21T20:50:14;101651.03;;;20.57;
62976;BME280;49071;0.000;0.000;2023-11-21T20:53:18;101655.25;;;20.48;
62976;BME280;49071;0.000;0.000;2023-11-21T20:56:18;101652.09;;;20.43;
